Butes — A8UR6 — position and weather

sailwx.info

Track history (hours):
 
Tides and Currents Weather Stations Pressure Air Temp Water Temp Dewpoint Dewpoint Depression Visibility Wind Speed Wind Dir Waves Ship Positions

Butes

Last reported at 2017-Oct-17 01:28 UTC. Time now 2017-Oct-23 04:30 UTC.
Position N 47°07' W 006°46'.

Length 90 m; draft 5.6 m.

Type: Cargo ship. MMSI: 636091937.

Date/timePositionNaut miles runAvg speedWind from/ knotsBaromVisibWave heightAir tempDewpointWater temp
2017-Oct-17 01:28N 47°07' W 006°46'131 6.2
2017-Oct-16 04:21N 49°05' W 005°20'3 7.8
2017-Oct-16 03:55N 49°06' W 005°16'5 8.1
2017-Oct-16 03:21N 49°09' W 005°10'4 7.9
2017-Oct-16 02:49N 49°11' W 005°04'7 7.8
2017-Oct-16 01:58N 49°14' W 004°55'4 7.6
2017-Oct-16 01:31N 49°16' W 004°51'4 8.0
2017-Oct-16 01:00N 49°18' W 004°45'4 8.5
2017-Oct-16 00:31N 49°20' W 004°40'7 9.1
2017-Oct-15 23:43N 49°24' W 004°30'6 9.6
2017-Oct-15 23:03N 49°27' W 004°22'110.0
2017-Oct-15 22:58N 49°27' W 004°21'5 9.9
2017-Oct-15 22:30N 49°30' W 004°14'710.3
2017-Oct-15 21:49N 49°34' W 004°05'410.6
2017-Oct-15 21:27N 49°36' W 004°01'510.5
2017-Oct-15 21:00N 49°38' W 003°54'610.7
2017-Oct-15 20:29N 49°40' W 003°47'510.6
2017-Oct-15 20:01N 49°43' W 003°40'610.2
2017-Oct-15 19:25N 49°46' W 003°32'4 9.9
2017-Oct-15 18:59N 49°48' W 003°26'4 9.6
2017-Oct-15 18:31N 49°50' W 003°19'5 9.3
2017-Oct-15 18:01N 49°52' W 003°13'4 9.0
2017-Oct-15 17:31N 49°54' W 003°07'4 8.7
2017-Oct-15 17:01N 49°56' W 003°01'4 8.5
2017-Oct-15 16:31N 49°58' W 002°55'4 8.3
2017-Oct-15 16:00N 50°00' W 002°49'4 8.4
2017-Oct-15 15:29N 50°02' W 002°43'9410.5
2017-Oct-15 06:35N 50°28' W 000°22'1 9.3
2017-Oct-15 06:31N 50°28' W 000°21'5 9.2
2017-Oct-15 06:00N 50°29' W 000°14'5 9.1
2017-Oct-15 05:30N 50°31' W 000°07'4 9.0
2017-Oct-15 05:00N 50°32' W 000°00'5 9.0
2017-Oct-15 04:30N 50°33' E 000°06'5 9.1
2017-Oct-15 04:01N 50°34' E 000°13'5 9.3
2017-Oct-15 03:30N 50°35' E 000°21'5 9.7
2017-Oct-15 03:01N 50°36' E 000°28'510.2
2017-Oct-15 02:30N 50°38' E 000°35'710.9
2017-Oct-15 01:54N 50°42' E 000°43'511.3
2017-Oct-15 01:31N 50°45' E 000°49'611.5
2017-Oct-15 01:01N 50°48' E 000°56'611.5
2017-Oct-15 00:30N 50°52' E 001°04'611.4
2017-Oct-15 00:01N 50°55' E 001°11'611.2
2017-Oct-14 23:30N 50°59' E 001°18'610.8
2017-Oct-14 22:59N 51°02' E 001°24'510.3
2017-Oct-14 22:29N 51°06' E 001°31'5 9.7
2017-Oct-14 22:00N 51°09' E 001°36'5 9.3
2017-Oct-14 21:31N 51°13' E 001°39'5 9.2
2017-Oct-14 21:00N 51°18' E 001°41'5 9.1
2017-Oct-14 20:31N 51°22' E 001°43'4 8.8
2017-Oct-14 20:01N 51°26' E 001°44'5 9.4
2017-Oct-14 19:30N 51°29' E 001°38'5 9.8
2017-Oct-14 19:01N 51°29' E 001°30'5 9.4
2017-Oct-14 18:31N 51°28' E 001°23'5 8.7
2017-Oct-14 17:56N 51°29' E 001°15'4 8.5
2017-Oct-14 17:30N 51°29' E 001°09'5 8.8
2017-Oct-14 16:55N 51°29' E 001°00'  
2017-Oct-11 23:47N 51°29' E 000°56'4 6.2
2017-Oct-11 23:07N 51°30' E 001°03'1 7.4
2017-Oct-11 23:00N 51°30' E 001°04'4 7.8
2017-Oct-11 22:30N 51°29' E 001°10'6 7.7
2017-Oct-11 21:40N 51°29' E 001°20'1 7.8
2017-Oct-11 21:30N 51°29' E 001°23'4 7.7
2017-Oct-11 21:00N 51°29' E 001°29'4 7.8
2017-Oct-11 20:30N 51°29' E 001°35'4 8.0
2017-Oct-11 20:01N 51°29' E 001°41'4 8.4
2017-Oct-11 19:30N 51°29' E 001°48'4 7.7
2017-Oct-11 19:01N 51°29' E 001°54'4 8.2
2017-Oct-11 18:31N 51°27' E 001°60'3 6.2
2017-Oct-11 18:00N 51°25' E 002°04'3 6.5
2017-Oct-11 17:30N 51°23' E 002°07'5 9.0
2017-Oct-11 17:00N 51°18' E 002°07'210 9.9
2017-Oct-10 19:48N 49°51' W 002°54'1110.2
2017-Oct-10 18:44N 49°51' W 003°11'5 9.6
2017-Oct-10 18:14N 49°53' W 003°18'2 9.6
2017-Oct-10 18:00N 49°53' W 003°22'67 1.9
2017-Oct-09 06:02N 50°09' W 005°03'0 5.6
2017-Oct-09 06:00N 50°09' W 005°03'4 7.1
2017-Oct-09 05:29N 50°06' W 005°01'3 2.2
2017-Oct-09 04:18N 50°03' W 005°00'0 0.0
2017-Oct-09 03:24N 50°03' W 005°00'0 0.0
2017-Oct-09 02:57N 50°03' W 005°00'0 0.1
2017-Oct-09 02:30N 50°03' W 005°00'0 0.0
2017-Oct-08 23:15N 50°03' W 005°00'0 0.2
2017-Oct-08 22:54N 50°03' W 005°00'0 0.1
2017-Oct-08 22:24N 50°03' W 005°00'0 0.0
2017-Oct-08 21:54N 50°03' W 005°00'0 0.0
2017-Oct-08 21:12N 50°03' W 005°00'0 0.0
2017-Oct-08 20:57N 50°03' W 005°00'0 0.0
2017-Oct-08 19:45N 50°03' W 005°00'0 0.0
2017-Oct-08 18:06N 50°03' W 005°00'0 0.0
2017-Oct-08 17:48N 50°03' W 005°00'0 0.0
2017-Oct-08 17:30N 50°03' W 005°00'0 0.0
2017-Oct-08 08:00N 50°03' W 005°00'0 0.0
2017-Oct-08 07:21N 50°03' W 005°00'0 0.0
2017-Oct-08 07:00N 50°03' W 005°00'0 0.0
2017-Oct-08 05:15N 50°03' W 005°00'0 0.0
2017-Oct-08 04:51N 50°03' W 005°00'0 0.0
2017-Oct-08 04:30N 50°03' W 005°00'0 0.0
2017-Oct-08 03:42N 50°03' W 005°00'0 0.0
2017-Oct-08 03:24N 50°03' W 005°00'0 0.0
2017-Oct-07 22:36N 50°03' W 005°00'0 0.0
2017-Oct-07 22:24N 50°03' W 005°00'0 0.1
2017-Oct-07 21:54N 50°03' W 005°00'0 0.1
2017-Oct-07 21:27N 50°03' W 005°00'0 0.0
2017-Oct-07 20:57N 50°03' W 005°00'0 0.1
2017-Oct-07 19:54N 50°03' W 005°00'0 0.0
2017-Oct-07 19:27N 50°03' W 005°00'0 0.0
2017-Oct-07 18:06N 50°03' W 005°00'0 0.0
2017-Oct-07 17:54N 50°03' W 005°00'0 0.0
2017-Oct-07 17:30N 50°03' W 005°00'0 0.1
2017-Oct-07 17:00N 50°03' W 005°00'3 5.8
2017-Oct-07 16:29N 50°01' W 005°03'38 4.9
2017-Oct-07 08:49N 50°28' W 005°44'310.0
2017-Oct-07 08:30N 50°30' W 005°40'5 9.9
2017-Oct-07 08:00N 50°33' W 005°34'5 9.2
2017-Oct-07 07:30N 50°36' W 005°29'4 8.9
2017-Oct-07 07:00N 50°39' W 005°23'5 8.5
2017-Oct-07 06:27N 50°42' W 005°18'4 8.4
2017-Oct-07 06:00N 50°45' W 005°13'4 8.1
2017-Oct-07 05:31N 50°47' W 005°09'4 8.0
2017-Oct-07 05:01N 50°50' W 005°04'4 7.8
2017-Oct-07 04:30N 50°52' W 004°59'4 7.8
2017-Oct-07 04:01N 50°55' W 004°54'4 8.0
2017-Oct-07 03:30N 50°57' W 004°49'4 7.7
2017-Oct-07 03:00N 50°60' W 004°45'4 7.8
2017-Oct-07 02:30N 51°03' W 004°40'4 7.9
2017-Oct-07 02:00N 51°05' W 004°35'5 9.0
2017-Oct-07 01:31N 51°08' W 004°30'  
Track history (hours):
 
Tides and Currents Weather Stations Pressure Air Temp Water Temp Dewpoint Dewpoint Depression Visibility Wind Speed Wind Dir Waves Ship Positions

Butes

Last reported at 2017-Oct-17 01:28 UTC. Time now 2017-Oct-23 04:30 UTC.
Position N 47°07' W 006°46'.

Length 90 m; draft 5.6 m.

Type: Cargo ship. MMSI: 636091937.

Date/timePositionNaut miles runAvg speedWind from/ knotsBaromVisibWave heightAir tempDewpointWater temp
2017-Oct-17 01:28N 47°07' W 006°46'131 6.2
2017-Oct-16 04:21N 49°05' W 005°20'3 7.8
2017-Oct-16 03:55N 49°06' W 005°16'5 8.1
2017-Oct-16 03:21N 49°09' W 005°10'4 7.9
2017-Oct-16 02:49N 49°11' W 005°04'7 7.8
2017-Oct-16 01:58N 49°14' W 004°55'4 7.6
2017-Oct-16 01:31N 49°16' W 004°51'4 8.0
2017-Oct-16 01:00N 49°18' W 004°45'4 8.5
2017-Oct-16 00:31N 49°20' W 004°40'7 9.1
2017-Oct-15 23:43N 49°24' W 004°30'6 9.6
2017-Oct-15 23:03N 49°27' W 004°22'110.0
2017-Oct-15 22:58N 49°27' W 004°21'5 9.9
2017-Oct-15 22:30N 49°30' W 004°14'710.3
2017-Oct-15 21:49N 49°34' W 004°05'410.6
2017-Oct-15 21:27N 49°36' W 004°01'510.5
2017-Oct-15 21:00N 49°38' W 003°54'610.7
2017-Oct-15 20:29N 49°40' W 003°47'510.6
2017-Oct-15 20:01N 49°43' W 003°40'610.2
2017-Oct-15 19:25N 49°46' W 003°32'4 9.9
2017-Oct-15 18:59N 49°48' W 003°26'4 9.6
2017-Oct-15 18:31N 49°50' W 003°19'5 9.3
2017-Oct-15 18:01N 49°52' W 003°13'4 9.0
2017-Oct-15 17:31N 49°54' W 003°07'4 8.7
2017-Oct-15 17:01N 49°56' W 003°01'4 8.5
2017-Oct-15 16:31N 49°58' W 002°55'4 8.3
2017-Oct-15 16:00N 50°00' W 002°49'4 8.4
2017-Oct-15 15:29N 50°02' W 002°43'9410.5
2017-Oct-15 06:35N 50°28' W 000°22'1 9.3
2017-Oct-15 06:31N 50°28' W 000°21'5 9.2
2017-Oct-15 06:00N 50°29' W 000°14'5 9.1
2017-Oct-15 05:30N 50°31' W 000°07'4 9.0
2017-Oct-15 05:00N 50°32' W 000°00'5 9.0
2017-Oct-15 04:30N 50°33' E 000°06'5 9.1
2017-Oct-15 04:01N 50°34' E 000°13'5 9.3
2017-Oct-15 03:30N 50°35' E 000°21'5 9.7
2017-Oct-15 03:01N 50°36' E 000°28'510.2
2017-Oct-15 02:30N 50°38' E 000°35'710.9
2017-Oct-15 01:54N 50°42' E 000°43'511.3
2017-Oct-15 01:31N 50°45' E 000°49'611.5
2017-Oct-15 01:01N 50°48' E 000°56'611.5
2017-Oct-15 00:30N 50°52' E 001°04'611.4
2017-Oct-15 00:01N 50°55' E 001°11'611.2
2017-Oct-14 23:30N 50°59' E 001°18'610.8
2017-Oct-14 22:59N 51°02' E 001°24'510.3
2017-Oct-14 22:29N 51°06' E 001°31'5 9.7
2017-Oct-14 22:00N 51°09' E 001°36'5 9.3
2017-Oct-14 21:31N 51°13' E 001°39'5 9.2
2017-Oct-14 21:00N 51°18' E 001°41'5 9.1
2017-Oct-14 20:31N 51°22' E 001°43'4 8.8
2017-Oct-14 20:01N 51°26' E 001°44'5 9.4
2017-Oct-14 19:30N 51°29' E 001°38'5 9.8
2017-Oct-14 19:01N 51°29' E 001°30'5 9.4
2017-Oct-14 18:31N 51°28' E 001°23'5 8.7
2017-Oct-14 17:56N 51°29' E 001°15'4 8.5
2017-Oct-14 17:30N 51°29' E 001°09'5 8.8
2017-Oct-14 16:55N 51°29' E 001°00'  
2017-Oct-11 23:47N 51°29' E 000°56'4 6.2
2017-Oct-11 23:07N 51°30' E 001°03'1 7.4
2017-Oct-11 23:00N 51°30' E 001°04'4 7.8
2017-Oct-11 22:30N 51°29' E 001°10'6 7.7
2017-Oct-11 21:40N 51°29' E 001°20'1 7.8
2017-Oct-11 21:30N 51°29' E 001°23'4 7.7
2017-Oct-11 21:00N 51°29' E 001°29'4 7.8
2017-Oct-11 20:30N 51°29' E 001°35'4 8.0
2017-Oct-11 20:01N 51°29' E 001°41'4 8.4
2017-Oct-11 19:30N 51°29' E 001°48'4 7.7
2017-Oct-11 19:01N 51°29' E 001°54'4 8.2
2017-Oct-11 18:31N 51°27' E 001°60'3 6.2
2017-Oct-11 18:00N 51°25' E 002°04'3 6.5
2017-Oct-11 17:30N 51°23' E 002°07'5 9.0
2017-Oct-11 17:00N 51°18' E 002°07'210 9.9
2017-Oct-10 19:48N 49°51' W 002°54'1110.2
2017-Oct-10 18:44N 49°51' W 003°11'5 9.6
2017-Oct-10 18:14N 49°53' W 003°18'2 9.6
2017-Oct-10 18:00N 49°53' W 003°22'67 1.9
2017-Oct-09 06:02N 50°09' W 005°03'0 5.6
2017-Oct-09 06:00N 50°09' W 005°03'4 7.1
2017-Oct-09 05:29N 50°06' W 005°01'3 2.2
2017-Oct-09 04:18N 50°03' W 005°00'0 0.0
2017-Oct-09 03:24N 50°03' W 005°00'0 0.0
2017-Oct-09 02:57N 50°03' W 005°00'0 0.1
2017-Oct-09 02:30N 50°03' W 005°00'0 0.0
2017-Oct-08 23:15N 50°03' W 005°00'0 0.2
2017-Oct-08 22:54N 50°03' W 005°00'0 0.1
2017-Oct-08 22:24N 50°03' W 005°00'0 0.0
2017-Oct-08 21:54N 50°03' W 005°00'0 0.0
2017-Oct-08 21:12N 50°03' W 005°00'0 0.0
2017-Oct-08 20:57N 50°03' W 005°00'0 0.0
2017-Oct-08 19:45N 50°03' W 005°00'0 0.0
2017-Oct-08 18:06N 50°03' W 005°00'0 0.0
2017-Oct-08 17:48N 50°03' W 005°00'0 0.0
2017-Oct-08 17:30N 50°03' W 005°00'0 0.0
2017-Oct-08 08:00N 50°03' W 005°00'0 0.0
2017-Oct-08 07:21N 50°03' W 005°00'0 0.0
2017-Oct-08 07:00N 50°03' W 005°00'0 0.0
2017-Oct-08 05:15N 50°03' W 005°00'0 0.0
2017-Oct-08 04:51N 50°03' W 005°00'0 0.0
2017-Oct-08 04:30N 50°03' W 005°00'0 0.0
2017-Oct-08 03:42N 50°03' W 005°00'0 0.0
2017-Oct-08 03:24N 50°03' W 005°00'0 0.0
2017-Oct-07 22:36N 50°03' W 005°00'0 0.0
2017-Oct-07 22:24N 50°03' W 005°00'0 0.1
2017-Oct-07 21:54N 50°03' W 005°00'0 0.1
2017-Oct-07 21:27N 50°03' W 005°00'0 0.0
2017-Oct-07 20:57N 50°03' W 005°00'0 0.1
2017-Oct-07 19:54N 50°03' W 005°00'0 0.0
2017-Oct-07 19:27N 50°03' W 005°00'0 0.0
2017-Oct-07 18:06N 50°03' W 005°00'0 0.0
2017-Oct-07 17:54N 50°03' W 005°00'0 0.0
2017-Oct-07 17:30N 50°03' W 005°00'0 0.1
2017-Oct-07 17:00N 50°03' W 005°00'3 5.8
2017-Oct-07 16:29N 50°01' W 005°03'38 4.9
2017-Oct-07 08:49N 50°28' W 005°44'310.0
2017-Oct-07 08:30N 50°30' W 005°40'5 9.9
2017-Oct-07 08:00N 50°33' W 005°34'5 9.2
2017-Oct-07 07:30N 50°36' W 005°29'4 8.9
2017-Oct-07 07:00N 50°39' W 005°23'5 8.5
2017-Oct-07 06:27N 50°42' W 005°18'4 8.4
2017-Oct-07 06:00N 50°45' W 005°13'4 8.1
2017-Oct-07 05:31N 50°47' W 005°09'4 8.0
2017-Oct-07 05:01N 50°50' W 005°04'4 7.8
2017-Oct-07 04:30N 50°52' W 004°59'4 7.8
2017-Oct-07 04:01N 50°55' W 004°54'4 8.0
2017-Oct-07 03:30N 50°57' W 004°49'4 7.7
2017-Oct-07 03:00N 50°60' W 004°45'4 7.8
2017-Oct-07 02:30N 51°03' W 004°40'4 7.9
2017-Oct-07 02:00N 51°05' W 004°35'5 9.0
2017-Oct-07 01:31N 51°08' W 004°30'  

Dump ship's entire track history